sensor_id;sensor_type;location;lat;lon;timestamp;P1;durP1;ratioP1;P2;durP2;ratioP2
73296;SDS011;61524;50.938;11.396;2023-08-07T00:01:31;3.30;;;1.40;;
73296;SDS011;61524;50.938;11.396;2023-08-07T00:03:56;3.40;;;1.60;;
73296;SDS011;61524;50.938;11.396;2023-08-07T00:06:21;5.20;;;1.70;;
73296;SDS011;61524;50.938;11.396;2023-08-07T00:08:46;2.67;;;1.40;;
73296;SDS011;61524;50.938;11.396;2023-08-07T00:11:12;2.85;;;1.60;;
73296;SDS011;61524;50.938;11.396;2023-08-07T00:13:37;4.10;;;1.60;;
73296;SDS011;61524;50.938;11.396;2023-08-07T00:16:02;3.57;;;1.60;;
73296;SDS011;61524;50.938;11.396;2023-08-07T00:18:28;3.63;;;1.73;;
73296;SDS011;61524;50.938;11.396;2023-08-07T00:20:54;3.58;;;1.50;;
73296;SDS011;61524;50.938;11.396;2023-08-07T00:23:19;3.20;;;1.63;;
73296;SDS011;61524;50.938;11.396;2023-08-07T00:25:44;4.27;;;2.20;;
73296;SDS011;61524;50.938;11.396;2023-08-07T00:28:09;2.70;;;1.30;;
73296;SDS011;61524;50.938;11.396;2023-08-07T00:30:35;6.47;;;1.60;;
73296;SDS011;61524;50.938;11.396;2023-08-07T00:33:00;3.17;;;1.63;;
73296;SDS011;61524;50.938;11.396;2023-08-07T00:35:25;2.43;;;1.30;;
73296;SDS011;61524;50.938;11.396;2023-08-07T00:37:51;3.57;;;1.53;;
73296;SDS011;61524;50.938;11.396;2023-08-07T00:40:16;3.13;;;1.60;;
73296;SDS011;61524;50.938;11.396;2023-08-07T00:42:42;3.58;;;1.40;;
73296;SDS011;61524;50.938;11.396;2023-08-07T00:45:07;3.17;;;1.52;;
73296;SDS011;61524;50.938;11.396;2023-08-07T00:47:32;2.80;;;1.38;;
73296;SDS011;61524;50.938;11.396;2023-08-07T00:49:58;3.42;;;1.33;;
73296;SDS011;61524;50.938;11.396;2023-08-07T00:52:24;2.45;;;1.20;;
73296;SDS011;61524;50.938;11.396;2023-08-07T00:54:49;3.17;;;1.45;;
73296;SDS011;61524;50.938;11.396;2023-08-07T00:57:15;3.30;;;1.70;;
73296;SDS011;61524;50.938;11.396;2023-08-07T00:59:40;2.85;;;1.40;;
73296;SDS011;61524;50.938;11.396;2023-08-07T01:02:06;3.67;;;1.98;;
73296;SDS011;61524;50.938;11.396;2023-08-07T01:04:32;3.10;;;1.63;;
73296;SDS011;61524;50.938;11.396;2023-08-07T01:06:57;4.73;;;1.77;;
73296;SDS011;61524;50.938;11.396;2023-08-07T01:09:22;10.20;;;2.40;;
73296;SDS011;61524;50.938;11.396;2023-08-07T01:11:56;3.83;;;1.80;;
73296;SDS011;61524;50.938;11.396;2023-08-07T01:14:33;4.15;;;1.88;;
73296;SDS011;61524;50.938;11.396;2023-08-07T01:17:05;3.47;;;1.60;;
73296;SDS011;61524;50.938;11.396;2023-08-07T01:19:31;5.18;;;1.42;;
73296;SDS011;61524;50.938;11.396;2023-08-07T01:24:34;2.80;;;1.70;;
73296;SDS011;61524;50.938;11.396;2023-08-07T01:27:11;3.65;;;2.03;;
73296;SDS011;61524;50.938;11.396;2023-08-07T01:30:03;3.08;;;1.67;;
73296;SDS011;61524;50.938;11.396;2023-08-07T01:32:28;3.55;;;2.10;;
73296;SDS011;61524;50.938;11.396;2023-08-07T01:34:54;3.92;;;1.90;;
73296;SDS011;61524;50.938;11.396;2023-08-07T01:37:19;4.93;;;1.80;;
73296;SDS011;61524;50.938;11.396;2023-08-07T01:39:45;3.38;;;1.80;;
73296;SDS011;61524;50.938;11.396;2023-08-07T01:42:11;4.00;;;2.20;;
73296;SDS011;61524;50.938;11.396;2023-08-07T01:44:37;3.53;;;2.00;;
73296;SDS011;61524;50.938;11.396;2023-08-07T01:47:03;4.10;;;2.30;;
73296;SDS011;61524;50.938;11.396;2023-08-07T01:49:28;4.22;;;2.45;;
73296;SDS011;61524;50.938;11.396;2023-08-07T01:51:53;4.43;;;2.38;;
73296;SDS011;61524;50.938;11.396;2023-08-07T01:54:19;3.97;;;2.13;;
73296;SDS011;61524;50.938;11.396;2023-08-07T01:56:44;5.00;;;2.17;;
73296;SDS011;61524;50.938;11.396;2023-08-07T01:59:09;5.63;;;2.30;;
73296;SDS011;61524;50.938;11.396;2023-08-07T02:01:34;5.27;;;2.23;;
73296;SDS011;61524;50.938;11.396;2023-08-07T02:04:00;4.60;;;2.47;;
73296;SDS011;61524;50.938;11.396;2023-08-07T02:06:25;6.90;;;2.10;;
73296;SDS011;61524;50.938;11.396;2023-08-07T02:08:50;4.90;;;2.13;;
73296;SDS011;61524;50.938;11.396;2023-08-07T02:11:15;5.37;;;2.30;;
73296;SDS011;61524;50.938;11.396;2023-08-07T02:13:41;7.47;;;2.60;;
73296;SDS011;61524;50.938;11.396;2023-08-07T02:16:06;5.70;;;2.20;;
73296;SDS011;61524;50.938;11.396;2023-08-07T02:18:31;3.70;;;2.07;;
73296;SDS011;61524;50.938;11.396;2023-08-07T02:20:56;4.60;;;2.20;;
73296;SDS011;61524;50.938;11.396;2023-08-07T02:23:22;3.67;;;1.90;;
73296;SDS011;61524;50.938;11.396;2023-08-07T02:25:48;4.10;;;2.10;;
73296;SDS011;61524;50.938;11.396;2023-08-07T02:28:13;3.60;;;1.73;;
73296;SDS011;61524;50.938;11.396;2023-08-07T02:30:38;4.00;;;1.47;;
73296;SDS011;61524;50.938;11.396;2023-08-07T02:33:04;4.43;;;1.50;;
73296;SDS011;61524;50.938;11.396;2023-08-07T02:35:29;5.53;;;2.00;;
73296;SDS011;61524;50.938;11.396;2023-08-07T02:37:54;3.90;;;1.93;;
73296;SDS011;61524;50.938;11.396;2023-08-07T02:40:19;4.33;;;1.73;;
73296;SDS011;61524;50.938;11.396;2023-08-07T02:42:45;4.63;;;1.50;;
73296;SDS011;61524;50.938;11.396;2023-08-07T02:45:10;4.27;;;1.73;;
73296;SDS011;61524;50.938;11.396;2023-08-07T02:47:35;5.17;;;1.67;;
73296;SDS011;61524;50.938;11.396;2023-08-07T02:50:01;3.20;;;1.50;;
73296;SDS011;61524;50.938;11.396;2023-08-07T02:52:26;3.20;;;1.73;;
73296;SDS011;61524;50.938;11.396;2023-08-07T02:54:51;2.93;;;1.50;;
73296;SDS011;61524;50.938;11.396;2023-08-07T02:57:16;2.75;;;1.60;;
73296;SDS011;61524;50.938;11.396;2023-08-07T02:59:42;2.77;;;1.40;;
73296;SDS011;61524;50.938;11.396;2023-08-07T03:02:07;2.90;;;1.30;;
73296;SDS011;61524;50.938;11.396;2023-08-07T03:04:32;5.10;;;1.50;;
73296;SDS011;61524;50.938;11.396;2023-08-07T03:06:58;3.60;;;1.53;;
73296;SDS011;61524;50.938;11.396;2023-08-07T03:09:23;6.33;;;1.60;;
73296;SDS011;61524;50.938;11.396;2023-08-07T03:11:48;5.45;;;1.67;;
73296;SDS011;61524;50.938;11.396;2023-08-07T03:14:13;3.58;;;1.38;;
73296;SDS011;61524;50.938;11.396;2023-08-07T03:16:39;5.87;;;1.53;;
73296;SDS011;61524;50.938;11.396;2023-08-07T03:19:04;4.97;;;1.40;;
73296;SDS011;61524;50.938;11.396;2023-08-07T03:21:29;3.43;;;1.70;;
73296;SDS011;61524;50.938;11.396;2023-08-07T03:23:55;2.83;;;1.52;;
73296;SDS011;61524;50.938;11.396;2023-08-07T03:26:20;2.37;;;1.30;;
73296;SDS011;61524;50.938;11.396;2023-08-07T03:28:45;3.47;;;1.20;;
73296;SDS011;61524;50.938;11.396;2023-08-07T03:31:14;3.03;;;1.70;;
73296;SDS011;61524;50.938;11.396;2023-08-07T03:33:39;2.75;;;1.25;;
73296;SDS011;61524;50.938;11.396;2023-08-07T03:36:04;4.80;;;1.60;;
73296;SDS011;61524;50.938;11.396;2023-08-07T03:38:30;3.93;;;1.60;;
73296;SDS011;61524;50.938;11.396;2023-08-07T03:40:55;2.97;;;1.38;;
73296;SDS011;61524;50.938;11.396;2023-08-07T03:43:20;2.17;;;1.03;;
73296;SDS011;61524;50.938;11.396;2023-08-07T03:45:46;3.60;;;1.50;;
73296;SDS011;61524;50.938;11.396;2023-08-07T03:48:11;4.33;;;1.53;;
73296;SDS011;61524;50.938;11.396;2023-08-07T03:50:36;5.40;;;1.40;;
73296;SDS011;61524;50.938;11.396;2023-08-07T03:53:05;5.07;;;1.88;;
73296;SDS011;61524;50.938;11.396;2023-08-07T03:55:32;2.88;;;1.23;;
73296;SDS011;61524;50.938;11.396;2023-08-07T03:57:57;2.80;;;1.50;;
73296;SDS011;61524;50.938;11.396;2023-08-07T04:00:22;2.95;;;1.25;;
73296;SDS011;61524;50.938;11.396;2023-08-07T04:02:48;4.97;;;1.70;;
73296;SDS011;61524;50.938;11.396;2023-08-07T04:05:13;2.53;;;1.30;;
73296;SDS011;61524;50.938;11.396;2023-08-07T04:07:38;3.40;;;1.40;;
73296;SDS011;61524;50.938;11.396;2023-08-07T04:10:03;3.27;;;1.30;;
73296;SDS011;61524;50.938;11.396;2023-08-07T04:12:29;2.70;;;1.40;;
73296;SDS011;61524;50.938;11.396;2023-08-07T04:14:54;2.97;;;1.27;;
73296;SDS011;61524;50.938;11.396;2023-08-07T04:17:19;4.17;;;1.40;;
73296;SDS011;61524;50.938;11.396;2023-08-07T04:19:45;2.80;;;1.37;;
73296;SDS011;61524;50.938;11.396;2023-08-07T04:22:10;3.00;;;1.13;;
73296;SDS011;61524;50.938;11.396;2023-08-07T04:24:35;3.23;;;1.00;;
73296;SDS011;61524;50.938;11.396;2023-08-07T04:27:00;3.58;;;1.20;;
73296;SDS011;61524;50.938;11.396;2023-08-07T04:29:26;2.37;;;1.10;;
73296;SDS011;61524;50.938;11.396;2023-08-07T04:31:51;2.00;;;0.90;;
73296;SDS011;61524;50.938;11.396;2023-08-07T04:34:16;1.70;;;0.90;;
73296;SDS011;61524;50.938;11.396;2023-08-07T04:36:41;2.60;;;1.20;;
73296;SDS011;61524;50.938;11.396;2023-08-07T04:39:07;1.83;;;0.90;;
73296;SDS011;61524;50.938;11.396;2023-08-07T04:41:32;3.07;;;1.20;;
73296;SDS011;61524;50.938;11.396;2023-08-07T04:43:57;1.92;;;1.00;;
73296;SDS011;61524;50.938;11.396;2023-08-07T04:46:23;2.05;;;0.98;;
73296;SDS011;61524;50.938;11.396;2023-08-07T04:48:48;1.97;;;1.00;;
73296;SDS011;61524;50.938;11.396;2023-08-07T04:51:13;2.25;;;0.75;;
73296;SDS011;61524;50.938;11.396;2023-08-07T04:53:39;1.27;;;0.80;;
73296;SDS011;61524;50.938;11.396;2023-08-07T04:56:04;3.43;;;0.90;;
73296;SDS011;61524;50.938;11.396;2023-08-07T04:58:29;5.10;;;1.27;;
73296;SDS011;61524;50.938;11.396;2023-08-07T05:00:55;4.00;;;0.80;;
73296;SDS011;61524;50.938;11.396;2023-08-07T05:03:21;2.50;;;1.27;;
73296;SDS011;61524;50.938;11.396;2023-08-07T05:05:46;1.47;;;0.90;;
73296;SDS011;61524;50.938;11.396;2023-08-07T05:08:11;1.65;;;0.65;;
73296;SDS011;61524;50.938;11.396;2023-08-07T05:10:37;1.48;;;1.00;;
73296;SDS011;61524;50.938;11.396;2023-08-07T05:13:02;1.87;;;0.90;;
73296;SDS011;61524;50.938;11.396;2023-08-07T05:15:27;3.10;;;1.00;;
73296;SDS011;61524;50.938;11.396;2023-08-07T05:17:54;1.75;;;0.90;;
73296;SDS011;61524;50.938;11.396;2023-08-07T05:20:19;2.40;;;1.13;;
73296;SDS011;61524;50.938;11.396;2023-08-07T05:22:44;1.83;;;0.90;;
73296;SDS011;61524;50.938;11.396;2023-08-07T05:25:10;2.03;;;1.05;;
73296;SDS011;61524;50.938;11.396;2023-08-07T05:27:36;4.28;;;1.20;;
73296;SDS011;61524;50.938;11.396;2023-08-07T05:30:02;2.70;;;1.10;;
73296;SDS011;61524;50.938;11.396;2023-08-07T05:32:27;1.48;;;0.80;;
73296;SDS011;61524;50.938;11.396;2023-08-07T05:34:53;1.92;;;1.10;;
73296;SDS011;61524;50.938;11.396;2023-08-07T05:37:18;2.33;;;0.90;;
73296;SDS011;61524;50.938;11.396;2023-08-07T05:39:43;2.50;;;1.03;;
73296;SDS011;61524;50.938;11.396;2023-08-07T05:42:09;4.20;;;1.00;;
73296;SDS011;61524;50.938;11.396;2023-08-07T05:44:35;2.80;;;0.80;;
73296;SDS011;61524;50.938;11.396;2023-08-07T05:47:00;1.80;;;0.90;;
73296;SDS011;61524;50.938;11.396;2023-08-07T05:49:26;2.60;;;0.90;;
73296;SDS011;61524;50.938;11.396;2023-08-07T05:51:51;2.50;;;0.80;;
73296;SDS011;61524;50.938;11.396;2023-08-07T05:54:16;1.73;;;0.80;;
73296;SDS011;61524;50.938;11.396;2023-08-07T05:56:42;1.80;;;0.80;;
73296;SDS011;61524;50.938;11.396;2023-08-07T05:59:07;2.35;;;0.90;;
73296;SDS011;61524;50.938;11.396;2023-08-07T06:01:32;0.97;;;0.67;;
73296;SDS011;61524;50.938;11.396;2023-08-07T06:03:58;4.00;;;1.00;;
73296;SDS011;61524;50.938;11.396;2023-08-07T06:06:24;1.73;;;0.80;;
73296;SDS011;61524;50.938;11.396;2023-08-07T06:08:50;1.52;;;0.80;;
73296;SDS011;61524;50.938;11.396;2023-08-07T06:11:15;1.33;;;0.70;;
73296;SDS011;61524;50.938;11.396;2023-08-07T06:13:41;3.92;;;0.65;;
73296;SDS011;61524;50.938;11.396;2023-08-07T06:16:06;1.30;;;0.70;;
73296;SDS011;61524;50.938;11.396;2023-08-07T06:18:31;1.17;;;0.70;;
73296;SDS011;61524;50.938;11.396;2023-08-07T06:20:57;1.23;;;0.60;;
73296;SDS011;61524;50.938;11.396;2023-08-07T06:23:22;1.50;;;0.73;;
73296;SDS011;61524;50.938;11.396;2023-08-07T06:25:47;1.40;;;0.73;;
73296;SDS011;61524;50.938;11.396;2023-08-07T06:28:12;1.97;;;0.60;;
73296;SDS011;61524;50.938;11.396;2023-08-07T06:30:39;0.93;;;0.50;;
73296;SDS011;61524;50.938;11.396;2023-08-07T06:33:04;1.43;;;0.73;;
73296;SDS011;61524;50.938;11.396;2023-08-07T06:35:29;1.03;;;0.60;;
73296;SDS011;61524;50.938;11.396;2023-08-07T06:37:55;1.75;;;0.80;;
73296;SDS011;61524;50.938;11.396;2023-08-07T06:40:20;2.72;;;1.05;;
73296;SDS011;61524;50.938;11.396;2023-08-07T06:42:46;0.80;;;0.40;;
73296;SDS011;61524;50.938;11.396;2023-08-07T06:45:11;1.93;;;0.70;;
73296;SDS011;61524;50.938;11.396;2023-08-07T06:47:36;1.40;;;0.90;;
73296;SDS011;61524;50.938;11.396;2023-08-07T06:50:02;3.53;;;0.80;;
73296;SDS011;61524;50.938;11.396;2023-08-07T06:52:27;1.25;;;0.70;;
73296;SDS011;61524;50.938;11.396;2023-08-07T06:54:52;1.63;;;0.50;;
73296;SDS011;61524;50.938;11.396;2023-08-07T06:57:18;0.85;;;0.47;;
73296;SDS011;61524;50.938;11.396;2023-08-07T06:59:43;1.30;;;0.70;;
73296;SDS011;61524;50.938;11.396;2023-08-07T07:02:09;2.40;;;1.00;;
73296;SDS011;61524;50.938;11.396;2023-08-07T07:04:34;2.28;;;0.63;;
73296;SDS011;61524;50.938;11.396;2023-08-07T07:07:01;0.73;;;0.57;;
73296;SDS011;61524;50.938;11.396;2023-08-07T07:09:26;0.93;;;0.50;;
73296;SDS011;61524;50.938;11.396;2023-08-07T07:11:53;0.85;;;0.60;;
73296;SDS011;61524;50.938;11.396;2023-08-07T07:14:19;2.08;;;0.73;;
73296;SDS011;61524;50.938;11.396;2023-08-07T07:16:44;1.48;;;0.60;;
73296;SDS011;61524;50.938;11.396;2023-08-07T07:19:09;3.40;;;0.80;;
73296;SDS011;61524;50.938;11.396;2023-08-07T07:21:35;0.73;;;0.55;;
73296;SDS011;61524;50.938;11.396;2023-08-07T07:24:01;2.13;;;0.90;;
73296;SDS011;61524;50.938;11.396;2023-08-07T07:26:27;1.13;;;0.60;;
73296;SDS011;61524;50.938;11.396;2023-08-07T07:28:52;1.20;;;0.95;;
73296;SDS011;61524;50.938;11.396;2023-08-07T07:31:17;1.17;;;0.60;;
73296;SDS011;61524;50.938;11.396;2023-08-07T07:33:42;0.57;;;0.40;;
73296;SDS011;61524;50.938;11.396;2023-08-07T07:36:13;1.42;;;0.68;;
73296;SDS011;61524;50.938;11.396;2023-08-07T07:38:38;0.77;;;0.40;;
73296;SDS011;61524;50.938;11.396;2023-08-07T07:41:03;0.70;;;0.20;;
73296;SDS011;61524;50.938;11.396;2023-08-07T07:43:28;3.30;;;0.60;;
73296;SDS011;61524;50.938;11.396;2023-08-07T07:45:54;0.85;;;0.40;;
73296;SDS011;61524;50.938;11.396;2023-08-07T07:48:19;0.68;;;0.50;;
73296;SDS011;61524;50.938;11.396;2023-08-07T07:50:45;0.75;;;0.20;;
73296;SDS011;61524;50.938;11.396;2023-08-07T07:53:10;0.53;;;0.50;;
73296;SDS011;61524;50.938;11.396;2023-08-07T07:55:35;3.37;;;0.40;;
73296;SDS011;61524;50.938;11.396;2023-08-07T07:58:02;0.50;;;0.40;;
73296;SDS011;61524;50.938;11.396;2023-08-07T08:00:28;0.60;;;0.30;;
73296;SDS011;61524;50.938;11.396;2023-08-07T08:02:53;0.73;;;0.30;;
73296;SDS011;61524;50.938;11.396;2023-08-07T08:05:19;0.28;;;0.20;;
73296;SDS011;61524;50.938;11.396;2023-08-07T08:07:44;1.67;;;0.40;;
73296;SDS011;61524;50.938;11.396;2023-08-07T08:10:09;1.02;;;0.30;;
73296;SDS011;61524;50.938;11.396;2023-08-07T08:12:35;0.77;;;0.30;;
73296;SDS011;61524;50.938;11.396;2023-08-07T08:15:01;0.20;;;0.20;;
73296;SDS011;61524;50.938;11.396;2023-08-07T08:17:27;0.15;;;0.10;;
73296;SDS011;61524;50.938;11.396;2023-08-07T08:19:52;1.10;;;0.20;;
73296;SDS011;61524;50.938;11.396;2023-08-07T08:22:18;0.20;;;0.20;;
73296;SDS011;61524;50.938;11.396;2023-08-07T08:24:44;1.20;;;0.45;;
73296;SDS011;61524;50.938;11.396;2023-08-07T08:27:09;0.10;;;0.10;;
73296;SDS011;61524;50.938;11.396;2023-08-07T08:29:34;1.03;;;0.37;;
73296;SDS011;61524;50.938;11.396;2023-08-07T08:32:00;0.75;;;0.40;;
73296;SDS011;61524;50.938;11.396;2023-08-07T08:34:25;0.40;;;0.30;;
73296;SDS011;61524;50.938;11.396;2023-08-07T08:36:51;1.45;;;0.30;;
73296;SDS011;61524;50.938;11.396;2023-08-07T08:39:16;0.47;;;0.40;;
73296;SDS011;61524;50.938;11.396;2023-08-07T08:41:41;1.13;;;0.50;;
73296;SDS011;61524;50.938;11.396;2023-08-07T08:44:10;0.60;;;0.30;;
73296;SDS011;61524;50.938;11.396;2023-08-07T08:46:37;0.60;;;0.40;;
73296;SDS011;61524;50.938;11.396;2023-08-07T08:49:03;1.42;;;0.52;;
73296;SDS011;61524;50.938;11.396;2023-08-07T08:51:29;0.80;;;0.32;;
73296;SDS011;61524;50.938;11.396;2023-08-07T08:53:55;0.60;;;0.30;;
73296;SDS011;61524;50.938;11.396;2023-08-07T08:56:21;1.10;;;0.40;;
73296;SDS011;61524;50.938;11.396;2023-08-07T08:58:47;1.25;;;0.50;;
73296;SDS011;61524;50.938;11.396;2023-08-07T09:01:13;1.23;;;0.40;;
73296;SDS011;61524;50.938;11.396;2023-08-07T09:03:38;0.98;;;0.50;;
73296;SDS011;61524;50.938;11.396;2023-08-07T09:06:04;0.80;;;0.43;;
73296;SDS011;61524;50.938;11.396;2023-08-07T09:08:31;1.05;;;0.38;;
73296;SDS011;61524;50.938;11.396;2023-08-07T09:10:57;1.58;;;0.50;;
73296;SDS011;61524;50.938;11.396;2023-08-07T09:13:23;1.60;;;0.50;;
73296;SDS011;61524;50.938;11.396;2023-08-07T09:15:52;1.75;;;0.63;;
73296;SDS011;61524;50.938;11.396;2023-08-07T09:18:18;0.93;;;0.22;;
73296;SDS011;61524;50.938;11.396;2023-08-07T09:20:46;0.88;;;0.35;;
73296;SDS011;61524;50.938;11.396;2023-08-07T09:23:12;0.77;;;0.30;;
73296;SDS011;61524;50.938;11.396;2023-08-07T09:25:37;0.55;;;0.20;;
73296;SDS011;61524;50.938;11.396;2023-08-07T09:28:06;0.63;;;0.40;;
73296;SDS011;61524;50.938;11.396;2023-08-07T09:30:32;0.52;;;0.32;;
73296;SDS011;61524;50.938;11.396;2023-08-07T09:32:57;0.80;;;0.30;;
73296;SDS011;61524;50.938;11.396;2023-08-07T09:35:23;1.13;;;0.20;;
73296;SDS011;61524;50.938;11.396;2023-08-07T09:37:48;1.20;;;0.73;;
73296;SDS011;61524;50.938;11.396;2023-08-07T09:40:14;0.20;;;0.20;;
73296;SDS011;61524;50.938;11.396;2023-08-07T09:42:41;0.95;;;0.30;;
73296;SDS011;61524;50.938;11.396;2023-08-07T09:45:19;0.57;;;0.20;;
73296;SDS011;61524;50.938;11.396;2023-08-07T09:47:45;0.38;;;0.30;;
73296;SDS011;61524;50.938;11.396;2023-08-07T09:50:15;0.30;;;0.15;;
73296;SDS011;61524;50.938;11.396;2023-08-07T09:52:41;0.10;;;0.10;;
73296;SDS011;61524;50.938;11.396;2023-08-07T09:55:06;0.20;;;0.20;;
73296;SDS011;61524;50.938;11.396;2023-08-07T09:57:32;0.90;;;0.20;;
73296;SDS011;61524;50.938;11.396;2023-08-07T09:59:58;0.28;;;0.13;;
73296;SDS011;61524;50.938;11.396;2023-08-07T10:02:24;0.60;;;0.40;;
73296;SDS011;61524;50.938;11.396;2023-08-07T10:04:50;0.40;;;0.20;;
73296;SDS011;61524;50.938;11.396;2023-08-07T10:07:15;0.10;;;0.10;;
73296;SDS011;61524;50.938;11.396;2023-08-07T10:09:41;0.10;;;0.10;;
73296;SDS011;61524;50.938;11.396;2023-08-07T10:12:07;0.13;;;0.13;;
73296;SDS011;61524;50.938;11.396;2023-08-07T10:14:32;0.10;;;0.10;;
73296;SDS011;61524;50.938;11.396;2023-08-07T10:16:58;1.60;;;0.43;;
73296;SDS011;61524;50.938;11.396;2023-08-07T10:19:23;1.50;;;0.28;;
73296;SDS011;61524;50.938;11.396;2023-08-07T10:21:48;0.83;;;0.30;;
73296;SDS011;61524;50.938;11.396;2023-08-07T10:24:14;0.20;;;0.20;;
73296;SDS011;61524;50.938;11.396;2023-08-07T10:26:44;0.93;;;0.30;;
73296;SDS011;61524;50.938;11.396;2023-08-07T10:29:10;0.55;;;0.30;;
73296;SDS011;61524;50.938;11.396;2023-08-07T10:34:02;1.40;;;0.30;;
73296;SDS011;61524;50.938;11.396;2023-08-07T10:36:33;0.50;;;0.30;;
73296;SDS011;61524;50.938;11.396;2023-08-07T10:39:05;3.63;;;0.30;;
73296;SDS011;61524;50.938;11.396;2023-08-07T10:41:37;0.65;;;0.40;;
73296;SDS011;61524;50.938;11.396;2023-08-07T10:44:03;0.55;;;0.30;;
73296;SDS011;61524;50.938;11.396;2023-08-07T10:46:28;0.67;;;0.30;;
73296;SDS011;61524;50.938;11.396;2023-08-07T10:49:11;0.68;;;0.40;;
73296;SDS011;61524;50.938;11.396;2023-08-07T10:51:55;3.75;;;0.98;;
73296;SDS011;61524;50.938;11.396;2023-08-07T10:54:20;1.10;;;0.20;;
73296;SDS011;61524;50.938;11.396;2023-08-07T10:56:45;1.77;;;0.50;;
73296;SDS011;61524;50.938;11.396;2023-08-07T10:59:17;1.17;;;0.50;;
73296;SDS011;61524;50.938;11.396;2023-08-07T11:01:42;0.67;;;0.40;;
73296;SDS011;61524;50.938;11.396;2023-08-07T11:04:09;0.40;;;0.30;;
73296;SDS011;61524;50.938;11.396;2023-08-07T11:06:35;0.50;;;0.40;;
73296;SDS011;61524;50.938;11.396;2023-08-07T11:09:02;0.65;;;0.40;;
73296;SDS011;61524;50.938;11.396;2023-08-07T11:11:43;1.65;;;0.40;;
73296;SDS011;61524;50.938;11.396;2023-08-07T11:14:12;1.42;;;0.50;;
73296;SDS011;61524;50.938;11.396;2023-08-07T11:16:38;1.98;;;0.40;;
73296;SDS011;61524;50.938;11.396;2023-08-07T11:19:04;0.52;;;0.20;;
73296;SDS011;61524;50.938;11.396;2023-08-07T11:21:32;1.90;;;0.60;;
73296;SDS011;61524;50.938;11.396;2023-08-07T11:23:58;0.68;;;0.40;;
73296;SDS011;61524;50.938;11.396;2023-08-07T11:26:23;0.93;;;0.37;;
73296;SDS011;61524;50.938;11.396;2023-08-07T11:28:51;1.23;;;0.38;;
73296;SDS011;61524;50.938;11.396;2023-08-07T11:31:17;0.43;;;0.30;;
73296;SDS011;61524;50.938;11.396;2023-08-07T11:33:42;1.85;;;0.40;;
73296;SDS011;61524;50.938;11.396;2023-08-07T11:36:11;1.08;;;0.30;;
73296;SDS011;61524;50.938;11.396;2023-08-07T11:38:37;0.75;;;0.30;;
73296;SDS011;61524;50.938;11.396;2023-08-07T11:41:04;0.85;;;0.20;;
73296;SDS011;61524;50.938;11.396;2023-08-07T11:43:31;0.60;;;0.35;;
73296;SDS011;61524;50.938;11.396;2023-08-07T11:45:57;1.50;;;0.30;;
73296;SDS011;61524;50.938;11.396;2023-08-07T11:48:26;1.25;;;0.52;;
73296;SDS011;61524;50.938;11.396;2023-08-07T11:50:51;0.90;;;0.60;;
73296;SDS011;61524;50.938;11.396;2023-08-07T11:53:17;1.42;;;0.40;;
73296;SDS011;61524;50.938;11.396;2023-08-07T11:55:52;0.75;;;0.40;;
73296;SDS011;61524;50.938;11.396;2023-08-07T11:58:20;0.50;;;0.40;;
73296;SDS011;61524;50.938;11.396;2023-08-07T12:00:46;0.85;;;0.57;;
73296;SDS011;61524;50.938;11.396;2023-08-07T12:03:49;0.98;;;0.60;;
73296;SDS011;61524;50.938;11.396;2023-08-07T12:06:06;0.75;;;0.40;;
73296;SDS011;61524;50.938;11.396;2023-08-07T12:08:38;1.23;;;0.40;;
73296;SDS011;61524;50.938;11.396;2023-08-07T12:11:05;1.45;;;0.40;;
73296;SDS011;61524;50.938;11.396;2023-08-07T12:13:30;1.83;;;0.60;;
73296;SDS011;61524;50.938;11.396;2023-08-07T12:15:57;2.03;;;0.40;;
73296;SDS011;61524;50.938;11.396;2023-08-07T12:18:23;2.17;;;1.00;;
73296;SDS011;61524;50.938;11.396;2023-08-07T12:20:52;1.23;;;0.68;;
73296;SDS011;61524;50.938;11.396;2023-08-07T12:23:18;1.25;;;0.60;;
73296;SDS011;61524;50.938;11.396;2023-08-07T12:25:45;2.42;;;0.93;;
73296;SDS011;61524;50.938;11.396;2023-08-07T12:28:10;1.67;;;0.70;;
73296;SDS011;61524;50.938;11.396;2023-08-07T12:30:36;2.42;;;0.55;;
73296;SDS011;61524;50.938;11.396;2023-08-07T12:33:02;4.00;;;0.70;;
73296;SDS011;61524;50.938;11.396;2023-08-07T12:35:29;5.00;;;0.80;;
73296;SDS011;61524;50.938;11.396;2023-08-07T12:37:55;2.58;;;0.60;;
73296;SDS011;61524;50.938;11.396;2023-08-07T12:40:20;2.07;;;0.80;;
73296;SDS011;61524;50.938;11.396;2023-08-07T12:42:46;1.48;;;0.60;;
73296;SDS011;61524;50.938;11.396;2023-08-07T12:45:11;1.95;;;0.75;;
73296;SDS011;61524;50.938;11.396;2023-08-07T12:47:36;2.13;;;0.73;;
73296;SDS011;61524;50.938;11.396;2023-08-07T12:50:02;0.80;;;0.50;;
73296;SDS011;61524;50.938;11.396;2023-08-07T12:52:28;1.83;;;0.80;;
73296;SDS011;61524;50.938;11.396;2023-08-07T12:54:54;1.40;;;0.60;;
73296;SDS011;61524;50.938;11.396;2023-08-07T12:57:20;1.30;;;0.70;;
73296;SDS011;61524;50.938;11.396;2023-08-07T12:59:45;1.25;;;0.50;;
73296;SDS011;61524;50.938;11.396;2023-08-07T13:02:10;0.70;;;0.47;;
73296;SDS011;61524;50.938;11.396;2023-08-07T13:04:36;2.53;;;0.43;;
73296;SDS011;61524;50.938;11.396;2023-08-07T13:07:01;1.23;;;0.50;;
73296;SDS011;61524;50.938;11.396;2023-08-07T13:09:26;1.70;;;0.47;;
73296;SDS011;61524;50.938;11.396;2023-08-07T13:11:52;1.50;;;0.60;;
73296;SDS011;61524;50.938;11.396;2023-08-07T13:14:17;0.87;;;0.53;;
73296;SDS011;61524;50.938;11.396;2023-08-07T13:16:42;0.60;;;0.50;;
73296;SDS011;61524;50.938;11.396;2023-08-07T13:19:07;1.17;;;0.55;;
73296;SDS011;61524;50.938;11.396;2023-08-07T13:21:33;1.70;;;0.63;;
73296;SDS011;61524;50.938;11.396;2023-08-07T13:23:58;2.08;;;0.60;;
73296;SDS011;61524;50.938;11.396;2023-08-07T13:26:23;0.97;;;0.47;;
73296;SDS011;61524;50.938;11.396;2023-08-07T13:28:49;0.75;;;0.50;;
73296;SDS011;61524;50.938;11.396;2023-08-07T13:31:14;2.17;;;0.87;;
73296;SDS011;61524;50.938;11.396;2023-08-07T13:33:39;2.03;;;0.70;;
73296;SDS011;61524;50.938;11.396;2023-08-07T13:36:04;1.00;;;0.53;;
73296;SDS011;61524;50.938;11.396;2023-08-07T13:38:30;1.23;;;0.60;;
73296;SDS011;61524;50.938;11.396;2023-08-07T13:40:55;2.37;;;0.70;;
73296;SDS011;61524;50.938;11.396;2023-08-07T13:43:20;1.47;;;0.57;;
73296;SDS011;61524;50.938;11.396;2023-08-07T13:45:46;2.15;;;0.77;;
73296;SDS011;61524;50.938;11.396;2023-08-07T13:48:11;2.00;;;0.73;;
73296;SDS011;61524;50.938;11.396;2023-08-07T13:50:36;2.67;;;0.73;;
73296;SDS011;61524;50.938;11.396;2023-08-07T13:53:03;2.03;;;0.85;;
73296;SDS011;61524;50.938;11.396;2023-08-07T13:55:28;1.53;;;0.40;;
73296;SDS011;61524;50.938;11.396;2023-08-07T13:57:54;1.67;;;0.87;;
73296;SDS011;61524;50.938;11.396;2023-08-07T14:00:19;1.75;;;0.70;;
73296;SDS011;61524;50.938;11.396;2023-08-07T14:02:44;1.27;;;0.83;;
73296;SDS011;61524;50.938;11.396;2023-08-07T14:05:10;1.50;;;0.77;;
73296;SDS011;61524;50.938;11.396;2023-08-07T14:07:35;1.67;;;0.67;;
73296;SDS011;61524;50.938;11.396;2023-08-07T14:10:00;2.63;;;0.90;;
73296;SDS011;61524;50.938;11.396;2023-08-07T14:12:25;1.35;;;0.50;;
73296;SDS011;61524;50.938;11.396;2023-08-07T14:14:52;1.23;;;0.52;;
73296;SDS011;61524;50.938;11.396;2023-08-07T14:17:17;1.93;;;0.60;;
73296;SDS011;61524;50.938;11.396;2023-08-07T14:19:42;0.90;;;0.60;;
73296;SDS011;61524;50.938;11.396;2023-08-07T14:22:07;1.47;;;0.60;;
73296;SDS011;61524;50.938;11.396;2023-08-07T14:24:33;2.40;;;1.05;;
73296;SDS011;61524;50.938;11.396;2023-08-07T14:26:58;1.95;;;0.63;;
73296;SDS011;61524;50.938;11.396;2023-08-07T14:29:23;1.20;;;0.50;;
73296;SDS011;61524;50.938;11.396;2023-08-07T14:31:49;1.90;;;0.70;;